createdAt,value
2024-02-02T04:32:08.156Z,55.80
2024-02-02T04:34:35.643Z,55.68
2024-02-02T04:37:02.778Z,55.76
2024-02-02T04:39:30.590Z,55.63
2024-02-02T04:41:57.691Z,55.50
2024-02-02T04:44:25.764Z,54.92
2024-02-02T04:46:54.183Z,54.96
2024-02-02T04:49:21.388Z,55.20
2024-02-02T04:51:48.506Z,56.02
2024-02-02T04:54:16.093Z,56.46
2024-02-02T04:56:43.402Z,55.64
2024-02-02T04:59:10.422Z,55.32
2024-02-02T05:01:37.487Z,54.95
2024-02-02T05:04:04.823Z,54.49
2024-02-02T05:06:32.148Z,54.98
2024-02-02T05:08:59.626Z,55.24
2024-02-02T05:11:26.672Z,54.74
2024-02-02T05:13:53.657Z,55.11
2024-02-02T05:16:21.971Z,56.32
2024-02-02T05:18:49.292Z,56.92
2024-02-02T05:21:16.450Z,58.10
2024-02-02T05:23:49.213Z,58.92
2024-02-02T05:26:18.719Z,58.52
2024-02-02T05:28:46.842Z,58.50
2024-02-02T05:31:13.992Z,57.66
2024-02-02T05:33:42.715Z,57.99
2024-02-02T05:36:11.971Z,57.33
2024-02-02T05:38:39.584Z,56.54
2024-02-02T05:41:06.987Z,56.06
2024-02-02T05:43:34.300Z,55.80
2024-02-02T05:46:01.396Z,55.34
2024-02-02T05:48:28.484Z,55.63
2024-02-02T05:50:55.768Z,54.98
2024-02-02T05:53:22.909Z,54.35
2024-02-02T05:55:50.051Z,54.79
2024-02-02T05:58:17.160Z,55.44
2024-02-02T06:00:44.267Z,55.46
2024-02-02T06:03:11.330Z,55.18
2024-02-02T06:05:38.602Z,55.22
2024-02-02T06:08:07.768Z,55.05
2024-02-02T06:10:35.263Z,54.77
2024-02-02T06:13:02.340Z,54.43
2024-02-02T06:15:29.452Z,53.75
2024-02-02T06:17:57.156Z,54.10
2024-02-02T06:20:24.306Z,54.59
2024-02-02T06:22:51.419Z,54.04
2024-02-02T06:25:19.016Z,55.09
2024-02-02T06:27:46.192Z,54.71
2024-02-02T06:30:14.432Z,55.61
2024-02-02T06:32:42.738Z,55.65
2024-02-02T06:35:10.295Z,54.81
2024-02-02T06:37:37.441Z,55.06
2024-02-02T06:40:05.687Z,55.38
2024-02-02T06:42:33.346Z,54.74
2024-02-02T06:45:00.533Z,55.44
2024-02-02T06:47:27.743Z,55.00
2024-02-02T06:49:54.964Z,54.79
2024-02-02T06:52:23.009Z,55.02
2024-02-02T06:54:50.250Z,55.63
2024-02-02T06:57:18.406Z,55.20
2024-02-02T06:59:45.556Z,54.84
2024-02-02T07:02:20.048Z,55.88
2024-02-02T07:04:47.843Z,55.76
2024-02-02T07:07:14.991Z,56.36
2024-02-02T07:09:43.775Z,56.74
2024-02-02T07:12:11.230Z,58.82
2024-02-02T07:14:44.398Z,58.07
2024-02-02T07:17:41.106Z,56.87
2024-02-02T07:20:18.451Z,56.70
2024-02-02T07:22:45.427Z,56.50
2024-02-02T07:25:13.537Z,56.38
2024-02-02T07:27:52.566Z,56.69
2024-02-02T07:30:46.037Z,56.42
2024-02-02T07:33:22.185Z,55.90
2024-02-02T07:35:49.329Z,55.94
2024-02-02T07:38:51.020Z,55.82
2024-02-02T07:41:18.978Z,56.08
2024-02-02T07:43:46.191Z,56.48
2024-02-02T07:46:15.921Z,56.16
2024-02-02T07:48:44.343Z,56.23
2024-02-02T07:51:12.837Z,56.17
2024-02-02T07:53:40.273Z,56.49
2024-02-02T07:56:07.530Z,56.78
2024-02-02T07:58:34.550Z,57.52
2024-02-02T08:01:01.631Z,57.14
2024-02-02T08:03:29.060Z,57.40
2024-02-02T08:05:56.505Z,58.70
2024-02-02T08:08:23.672Z,59.22
2024-02-02T08:10:50.912Z,59.44
2024-02-02T08:13:19.764Z,59.02
2024-02-02T08:15:46.935Z,59.50
2024-02-02T08:18:14.194Z,59.04
2024-02-02T08:20:41.465Z,58.13
2024-02-02T08:23:08.489Z,59.22
2024-02-02T08:25:35.677Z,58.50
2024-02-02T08:28:03.038Z,59.47
2024-02-02T08:30:30.271Z,59.17
2024-02-02T08:32:57.567Z,60.58
2024-02-02T08:35:26.400Z,58.79
2024-02-02T08:37:56.745Z,59.01
2024-02-02T08:40:39.635Z,58.63
2024-02-02T08:43:22.673Z,58.41
2024-02-02T08:46:10.803Z,59.21
2024-02-02T08:48:39.837Z,59.05
2024-02-02T08:51:24.659Z,59.01
2024-02-02T08:54:36.343Z,60.11
2024-02-02T08:57:12.916Z,59.95
2024-02-02T08:59:44.468Z,59.43
2024-02-02T09:02:23.094Z,60.30
2024-02-02T09:05:10.650Z,59.28
2024-02-02T09:07:37.897Z,58.50
2024-02-02T09:10:32.987Z,60.00
2024-02-02T09:13:02.162Z,58.42
2024-02-02T09:15:35.192Z,58.56
2024-02-02T09:18:02.507Z,59.45
2024-02-02T09:20:51.035Z,58.58
2024-02-02T09:23:18.220Z,58.80
2024-02-02T09:25:46.093Z,58.37
2024-02-02T09:28:42.756Z,58.38
2024-02-02T09:31:13.072Z,58.16
2024-02-02T09:33:47.185Z,60.03
2024-02-02T09:36:14.645Z,61.59
2024-02-02T09:38:43.130Z,59.80
2024-02-02T09:41:52.108Z,58.30
2024-02-02T09:44:29.980Z,58.30
2024-02-02T09:47:00.893Z,60.76
2024-02-02T09:49:41.407Z,59.36
2024-02-02T09:52:33.279Z,58.61
2024-02-02T09:55:08.137Z,57.91
2024-02-02T09:57:46.918Z,58.46
2024-02-02T10:00:33.604Z,59.05
2024-02-02T10:03:09.101Z,58.46
2024-02-02T10:06:19.386Z,60.26
2024-02-02T10:08:49.226Z,59.54
2024-02-02T10:11:25.312Z,59.07
2024-02-02T10:14:00.700Z,62.22
2024-02-02T10:16:36.152Z,64.06
2024-02-02T10:19:23.434Z,62.41
2024-02-02T10:22:37.090Z,60.87
2024-02-02T10:25:07.353Z,64.46
2024-02-02T10:27:54.071Z,63.42
2024-02-02T10:31:00.517Z,62.56
2024-02-02T10:33:39.572Z,63.26
2024-02-02T10:36:37.645Z,63.86
2024-02-02T10:39:29.972Z,65.18
2024-02-02T10:42:20.497Z,63.87
2024-02-02T10:45:11.093Z,64.97
2024-02-02T10:48:07.210Z,64.21
2024-02-02T10:50:41.258Z,61.88
2024-02-02T10:53:29.471Z,62.27
2024-02-02T10:56:15.544Z,62.79
2024-02-02T10:59:50.251Z,62.22
2024-02-02T11:02:41.879Z,66.09
2024-02-02T11:05:24.895Z,65.43
2024-02-02T11:07:55.300Z,63.40
2024-02-02T11:10:24.927Z,62.81
2024-02-02T11:12:58.848Z,62.90
2024-02-02T11:15:47.097Z,66.30
2024-02-02T11:18:33.448Z,63.91
2024-02-02T11:21:28.196Z,62.08
2024-02-02T11:24:23.085Z,62.02
2024-02-02T11:27:22.571Z,61.97
2024-02-02T11:29:49.541Z,62.20
2024-02-02T11:32:28.723Z,60.19
2024-02-02T11:35:37.047Z,60.06
2024-02-02T11:38:42.573Z,59.29
2024-02-02T11:41:17.244Z,58.20
2024-02-02T11:43:45.695Z,59.07
2024-02-02T11:46:13.994Z,60.10
2024-02-02T11:48:42.513Z,59.47
2024-02-02T11:51:10.694Z,57.81
2024-02-02T11:54:33.581Z,59.60
2024-02-02T11:57:00.918Z,58.87
2024-02-02T11:59:33.384Z,56.20
2024-02-02T12:02:37.420Z,57.88
2024-02-02T12:05:12.967Z,59.10
2024-02-02T12:07:40.112Z,59.31
2024-02-02T12:10:09.480Z,58.59
2024-02-02T12:12:44.684Z,58.88
2024-02-02T12:15:12.276Z,57.59
2024-02-02T12:17:40.077Z,58.28
2024-02-02T12:20:10.535Z,57.75
2024-02-02T12:22:37.865Z,58.33
2024-02-02T12:25:05.823Z,55.64
2024-02-02T12:27:33.164Z,56.58
2024-02-02T12:30:00.690Z,56.62
2024-02-02T12:32:27.839Z,56.25
2024-02-02T12:34:54.951Z,56.61
2024-02-02T12:37:22.103Z,56.20
2024-02-02T12:39:53.087Z,56.88
2024-02-02T12:42:23.657Z,57.63
2024-02-02T12:44:51.621Z,55.88
2024-02-02T12:47:26.739Z,55.88
2024-02-02T12:49:56.059Z,55.51
2024-02-02T12:52:23.944Z,57.86
2024-02-02T12:54:52.704Z,57.14
2024-02-02T12:57:19.857Z,56.51
2024-02-02T12:59:47.163Z,57.63
2024-02-02T13:02:15.045Z,57.68
2024-02-02T13:04:42.614Z,57.25
2024-02-02T13:07:09.802Z,56.85
2024-02-02T13:09:39.703Z,56.18
2024-02-02T13:12:08.429Z,57.57
2024-02-02T13:14:36.936Z,56.54
2024-02-02T13:17:10.432Z,56.01
2024-02-02T13:19:40.078Z,55.60
2024-02-02T13:22:22.853Z,55.78
2024-02-02T13:24:51.289Z,54.85
2024-02-02T13:27:20.235Z,54.13
2024-02-02T13:29:52.955Z,53.58
2024-02-02T13:32:21.050Z,52.52
2024-02-02T13:34:48.405Z,57.07
2024-02-02T13:37:30.973Z,54.45
2024-02-02T13:40:00.029Z,54.51
2024-02-02T13:42:27.731Z,53.57
2024-02-02T13:44:54.768Z,52.29
2024-02-02T13:47:22.099Z,53.95
2024-02-02T13:49:53.854Z,56.87
2024-02-02T13:52:21.070Z,54.88
2024-02-02T13:54:48.679Z,54.50
2024-02-02T13:57:16.869Z,53.85
2024-02-02T13:59:44.270Z,55.33
2024-02-02T14:02:11.558Z,54.65
2024-02-02T14:04:38.716Z,55.93
2024-02-02T14:07:15.840Z,54.39
2024-02-02T14:09:43.513Z,52.24
2024-02-02T14:12:11.037Z,53.41
2024-02-02T14:14:38.155Z,55.01
2024-02-02T14:17:05.835Z,54.46
2024-02-02T14:19:33.630Z,53.77
2024-02-02T14:22:08.104Z,53.75
2024-02-02T14:24:45.626Z,51.87
2024-02-02T14:27:12.760Z,51.62
2024-02-02T14:29:43.540Z,51.51
2024-02-02T14:32:11.506Z,52.31
2024-02-02T14:34:38.802Z,55.18
2024-02-02T14:37:05.895Z,51.93
2024-02-02T14:39:33.118Z,51.87
2024-02-02T14:42:00.982Z,51.30
2024-02-02T14:44:29.936Z,51.36
2024-02-02T14:46:57.811Z,51.09
2024-02-02T14:49:27.097Z,52.04
2024-02-02T14:51:57.640Z,52.53
2024-02-02T14:54:26.803Z,52.06
2024-02-02T14:56:53.989Z,51.93
2024-02-02T14:59:24.757Z,50.89
2024-02-02T15:01:52.308Z,53.81
2024-02-02T15:04:20.172Z,53.69
2024-02-02T15:06:47.261Z,53.60
2024-02-02T15:09:15.458Z,55.46
2024-02-02T15:11:43.237Z,53.91
2024-02-02T15:14:10.655Z,53.68
2024-02-02T15:16:37.968Z,51.94
2024-02-02T15:19:05.402Z,53.55
2024-02-02T15:21:33.099Z,51.28
2024-02-02T15:24:00.419Z,51.03
2024-02-02T15:26:27.584Z,51.88
2024-02-02T15:28:54.673Z,51.90
2024-02-02T15:31:21.745Z,52.74
2024-02-02T15:33:49.083Z,51.67
2024-02-02T15:36:16.889Z,51.47
2024-02-02T15:38:59.998Z,51.65
2024-02-02T15:41:31.096Z,50.00
2024-02-02T15:43:58.284Z,49.41
2024-02-02T15:46:25.484Z,51.13
2024-02-02T15:48:53.177Z,50.34
2024-02-02T15:51:21.173Z,51.76
2024-02-02T15:53:48.295Z,50.23
2024-02-02T15:56:16.850Z,52.15
2024-02-02T15:58:44.530Z,51.48
2024-02-02T16:01:13.265Z,52.85
2024-02-02T16:03:41.814Z,51.90
2024-02-02T16:06:10.346Z,50.82
2024-02-02T16:08:37.931Z,52.65
2024-02-02T16:11:05.666Z,50.34
2024-02-02T16:13:32.983Z,50.95
2024-02-02T16:16:00.402Z,50.49
2024-02-02T16:18:27.657Z,50.85
2024-02-02T16:20:55.087Z,50.32
2024-02-02T16:23:22.316Z,51.21
2024-02-02T16:25:49.433Z,49.96
2024-02-02T16:28:16.545Z,48.92
2024-02-02T16:30:43.896Z,49.83
2024-02-02T16:33:11.122Z,50.30
2024-02-02T16:35:38.715Z,50.55
2024-02-02T16:38:05.822Z,52.61
2024-02-02T16:40:32.908Z,51.81
2024-02-02T16:43:00.059Z,50.78
2024-02-02T16:45:27.092Z,50.87
2024-02-02T16:47:54.772Z,50.28
2024-02-02T16:50:22.192Z,51.41
2024-02-02T16:52:49.239Z,51.16
2024-02-02T16:55:16.382Z,50.42
2024-02-02T16:57:43.546Z,50.64
2024-02-02T17:00:12.582Z,50.33
2024-02-02T17:02:39.774Z,50.54
2024-02-02T17:05:07.265Z,50.73
2024-02-02T17:07:34.422Z,50.26
2024-02-02T17:10:01.560Z,51.59
2024-02-02T17:12:28.734Z,52.27
2024-02-02T17:14:56.005Z,52.49
2024-02-02T17:17:23.192Z,51.96
2024-02-02T17:19:50.421Z,51.71
2024-02-02T17:22:17.582Z,52.77
2024-02-02T17:24:45.039Z,52.26
2024-02-02T17:27:12.232Z,52.69
2024-02-02T17:29:42.876Z,53.81
2024-02-02T17:32:09.912Z,52.87
2024-02-02T17:34:37.161Z,52.97
2024-02-02T17:37:04.468Z,52.98
2024-02-02T17:39:31.622Z,53.62
2024-02-02T17:41:58.781Z,52.05
2024-02-02T17:44:28.002Z,51.18
2024-02-02T17:46:55.433Z,50.78
2024-02-02T17:49:22.619Z,50.93
2024-02-02T17:51:50.248Z,49.77
2024-02-02T17:54:17.612Z,49.43
2024-02-02T17:56:44.855Z,50.55
2024-02-02T17:59:11.982Z,50.68
2024-02-02T18:01:39.307Z,50.76
2024-02-02T18:04:06.987Z,52.24
2024-02-02T18:06:34.290Z,50.85
2024-02-02T18:09:01.557Z,50.49
2024-02-02T18:11:28.619Z,52.26
2024-02-02T18:13:55.925Z,51.78
2024-02-02T18:16:23.084Z,52.56
2024-02-02T18:18:50.310Z,51.54
2024-02-02T18:21:17.491Z,51.96
2024-02-02T18:23:44.544Z,50.65
2024-02-02T18:26:11.578Z,49.97
2024-02-02T18:28:38.589Z,48.99
2024-02-02T18:31:05.750Z,50.97
2024-02-02T18:33:32.890Z,50.45
2024-02-02T18:36:00.004Z,50.34
2024-02-02T18:38:27.068Z,50.65
2024-02-02T18:40:54.169Z,52.39
2024-02-02T18:43:21.189Z,53.36
2024-02-02T18:45:48.372Z,51.55
2024-02-02T18:48:15.958Z,51.65
2024-02-02T18:50:43.594Z,51.55
2024-02-02T18:53:10.616Z,51.65
2024-02-02T18:55:37.632Z,54.73
2024-02-02T18:58:04.844Z,53.34
2024-02-02T19:00:32.238Z,53.77
2024-02-02T19:02:59.379Z,54.19
2024-02-02T19:05:26.649Z,51.34
2024-02-02T19:07:53.752Z,52.27
2024-02-02T19:10:21.360Z,53.93
2024-02-02T19:12:48.533Z,52.68
2024-02-02T19:15:15.768Z,51.87
2024-02-02T19:17:44.045Z,53.22
2024-02-02T19:20:12.172Z,51.80
2024-02-02T19:22:40.112Z,54.14
2024-02-02T19:25:07.325Z,52.65
2024-02-02T19:27:34.589Z,54.11
2024-02-02T19:30:01.974Z,52.53
2024-02-02T19:32:29.437Z,52.58
2024-02-02T19:34:56.678Z,51.13
2024-02-02T19:37:24.421Z,52.20
2024-02-02T19:39:51.607Z,50.57
2024-02-02T19:42:18.740Z,50.73
2024-02-02T19:44:45.989Z,51.73
2024-02-02T19:47:15.177Z,53.68
2024-02-02T19:49:42.683Z,53.54
2024-02-02T19:52:10.454Z,52.45
2024-02-02T19:54:38.137Z,52.23
2024-02-02T19:57:05.691Z,53.28
2024-02-02T19:59:33.024Z,53.10
2024-02-02T20:02:03.178Z,53.46
2024-02-02T20:04:30.932Z,52.43
2024-02-02T20:06:58.284Z,51.95
2024-02-02T20:09:25.838Z,52.09
2024-02-02T20:11:53.151Z,52.79
2024-02-02T20:14:20.169Z,53.55
2024-02-02T20:16:48.891Z,52.84
2024-02-02T20:19:17.414Z,53.78
2024-02-02T20:21:44.688Z,53.01
2024-02-02T20:24:11.989Z,52.23
2024-02-02T20:26:39.308Z,53.28
2024-02-02T20:29:06.482Z,55.34
2024-02-02T20:31:33.898Z,52.20
2024-02-02T20:34:01.422Z,51.71
2024-02-02T20:36:31.102Z,50.87
2024-02-02T20:38:58.284Z,49.43
2024-02-02T20:41:26.928Z,47.86
2024-02-02T20:43:59.126Z,49.17
2024-02-02T20:46:26.853Z,49.10
2024-02-02T20:48:54.315Z,47.64
2024-02-02T20:51:22.400Z,47.29
2024-02-02T20:53:50.031Z,47.71
2024-02-02T20:56:17.347Z,47.37
2024-02-02T20:58:44.369Z,47.24
2024-02-02T21:01:11.959Z,49.75
2024-02-02T21:03:39.277Z,48.98
2024-02-02T21:06:06.957Z,50.18
2024-02-02T21:08:34.044Z,48.18
2024-02-02T21:11:01.306Z,47.16
2024-02-02T21:13:28.537Z,47.19
2024-02-02T21:15:56.015Z,49.50
2024-02-02T21:18:24.782Z,49.54
2024-02-02T21:20:54.392Z,49.41
2024-02-02T21:23:21.685Z,47.94
2024-02-02T21:25:49.279Z,46.79
2024-02-02T21:28:18.388Z,46.82
2024-02-02T21:30:45.581Z,47.66
2024-02-02T21:33:13.591Z,47.30
2024-02-02T21:35:42.014Z,48.21
2024-02-02T21:38:09.297Z,50.02
2024-02-02T21:40:36.746Z,47.95
2024-02-02T21:43:04.397Z,49.74
2024-02-02T21:45:34.036Z,48.66
2024-02-02T21:48:01.384Z,48.56
2024-02-02T21:50:28.606Z,47.55
2024-02-02T21:52:55.865Z,49.88
2024-02-02T21:55:22.951Z,51.13
2024-02-02T21:57:50.373Z,50.48
2024-02-02T22:00:18.112Z,52.39
2024-02-02T22:02:46.884Z,50.01
2024-02-02T22:05:14.634Z,50.08
2024-02-02T22:07:42.215Z,50.67
2024-02-02T22:10:09.904Z,49.24
2024-02-02T22:12:36.961Z,48.84
2024-02-02T22:15:04.942Z,50.28
2024-02-02T22:17:32.480Z,51.56
2024-02-02T22:19:59.993Z,52.95
2024-02-02T22:22:27.052Z,54.37
2024-02-02T22:24:54.285Z,52.12
2024-02-02T22:27:23.690Z,51.54
2024-02-02T22:29:51.488Z,51.25
2024-02-02T22:32:21.496Z,51.92
2024-02-02T22:34:51.900Z,51.70
2024-02-02T22:37:19.094Z,50.47
2024-02-02T22:39:46.217Z,51.07
2024-02-02T22:42:13.321Z,50.38
2024-02-02T22:44:40.339Z,52.48
2024-02-02T22:47:07.344Z,56.00
2024-02-02T22:49:35.222Z,51.69
2024-02-02T22:52:02.582Z,50.09
2024-02-02T22:54:30.075Z,49.97
2024-02-02T22:56:57.184Z,51.83
2024-02-02T22:59:24.276Z,52.59
